Terminal Aerodrome Forecast
Issued by NWS

Home | Current Version | Previous Version | Text Only | Print | Product List | Glossary On
Versions: 1 2 3 4 5 6 7 8 9 10 11 12 13 14 15 16 17 18 19 20 21 22 23 24 25 26 27 28 29 30
245
FTPA31 PHFO 220504 AAC
TAFHTO
TAF AMD
PHTO 220504Z 2205/2224 VRB06KT 4SM RA BKN015 OVC020
      TEMPO 2205/2207 1 1/2SM SHRA BR BKN015
     FM220700 24005KT 4SM SHRA BR SCT015 BKN025
     FM222100 08008KT P6SM VCSH SCT025 BKN035=

USA.gov is the U.S. government's official web portal to all federal, state and local government web resources and services.